sensor_id;sensor_type;location;lat;lon;timestamp;P1;durP1;ratioP1;P2;durP2;ratioP2
24030;SDS011;12240;51.142;22.486;2022-12-13T00:01:57;22.30;;;9.70;;
24030;SDS011;12240;51.142;22.486;2022-12-13T00:04:26;18.42;;;7.85;;
24030;SDS011;12240;51.142;22.486;2022-12-13T00:06:54;18.65;;;8.57;;
24030;SDS011;12240;51.142;22.486;2022-12-13T00:09:22;25.80;;;9.35;;
24030;SDS011;12240;51.142;22.486;2022-12-13T00:11:50;20.42;;;8.55;;
24030;SDS011;12240;51.142;22.486;2022-12-13T00:14:19;20.15;;;8.52;;
24030;SDS011;12240;51.142;22.486;2022-12-13T00:16:47;23.05;;;9.95;;
24030;SDS011;12240;51.142;22.486;2022-12-13T00:19:16;21.58;;;8.27;;
24030;SDS011;12240;51.142;22.486;2022-12-13T00:21:45;21.67;;;8.98;;
24030;SDS011;12240;51.142;22.486;2022-12-13T00:24:13;17.77;;;8.35;;
24030;SDS011;12240;51.142;22.486;2022-12-13T00:26:42;23.08;;;8.60;;
24030;SDS011;12240;51.142;22.486;2022-12-13T00:29:10;16.42;;;7.13;;
24030;SDS011;12240;51.142;22.486;2022-12-13T00:31:39;23.20;;;8.75;;
24030;SDS011;12240;51.142;22.486;2022-12-13T00:34:27;20.58;;;8.52;;
24030;SDS011;12240;51.142;22.486;2022-12-13T00:36:58;23.15;;;10.32;;
24030;SDS011;12240;51.142;22.486;2022-12-13T00:39:26;15.25;;;6.72;;
24030;SDS011;12240;51.142;22.486;2022-12-13T00:41:55;19.40;;;8.32;;
24030;SDS011;12240;51.142;22.486;2022-12-13T00:44:23;18.88;;;7.38;;
24030;SDS011;12240;51.142;22.486;2022-12-13T00:46:52;20.20;;;8.73;;
24030;SDS011;12240;51.142;22.486;2022-12-13T00:49:21;15.85;;;7.57;;
24030;SDS011;12240;51.142;22.486;2022-12-13T00:51:49;18.75;;;8.35;;
24030;SDS011;12240;51.142;22.486;2022-12-13T00:54:18;17.55;;;7.95;;
24030;SDS011;12240;51.142;22.486;2022-12-13T00:56:46;21.05;;;9.07;;
24030;SDS011;12240;51.142;22.486;2022-12-13T00:59:14;15.73;;;6.75;;
24030;SDS011;12240;51.142;22.486;2022-12-13T01:01:42;21.52;;;8.73;;
24030;SDS011;12240;51.142;22.486;2022-12-13T01:04:11;22.05;;;8.07;;
24030;SDS011;12240;51.142;22.486;2022-12-13T01:06:41;17.35;;;8.15;;
24030;SDS011;12240;51.142;22.486;2022-12-13T01:09:17;17.58;;;8.05;;
24030;SDS011;12240;51.142;22.486;2022-12-13T01:11:49;16.40;;;7.72;;
24030;SDS011;12240;51.142;22.486;2022-12-13T01:14:18;18.27;;;8.30;;
24030;SDS011;12240;51.142;22.486;2022-12-13T01:16:46;17.85;;;7.30;;
24030;SDS011;12240;51.142;22.486;2022-12-13T01:19:14;19.70;;;9.18;;
24030;SDS011;12240;51.142;22.486;2022-12-13T01:21:42;17.05;;;7.57;;
24030;SDS011;12240;51.142;22.486;2022-12-13T01:24:10;21.08;;;9.07;;
24030;SDS011;12240;51.142;22.486;2022-12-13T01:26:38;20.05;;;8.13;;
24030;SDS011;12240;51.142;22.486;2022-12-13T01:29:06;21.55;;;9.48;;
24030;SDS011;12240;51.142;22.486;2022-12-13T01:31:37;16.75;;;8.25;;
24030;SDS011;12240;51.142;22.486;2022-12-13T01:34:08;18.30;;;8.65;;
24030;SDS011;12240;51.142;22.486;2022-12-13T01:36:43;23.75;;;9.38;;
24030;SDS011;12240;51.142;22.486;2022-12-13T01:39:13;21.23;;;8.55;;
24030;SDS011;12240;51.142;22.486;2022-12-13T01:41:53;23.25;;;9.80;;
24030;SDS011;12240;51.142;22.486;2022-12-13T01:47:34;19.98;;;8.63;;
24030;SDS011;12240;51.142;22.486;2022-12-13T01:53:04;19.27;;;9.07;;
24030;SDS011;12240;51.142;22.486;2022-12-13T01:58:08;17.48;;;8.70;;
24030;SDS011;12240;51.142;22.486;2022-12-13T02:00:36;19.02;;;8.43;;
24030;SDS011;12240;51.142;22.486;2022-12-13T02:03:07;19.88;;;9.25;;
24030;SDS011;12240;51.142;22.486;2022-12-13T02:08:52;19.45;;;8.38;;
24030;SDS011;12240;51.142;22.486;2022-12-13T02:11:20;22.52;;;8.82;;
24030;SDS011;12240;51.142;22.486;2022-12-13T02:13:48;23.00;;;8.45;;
24030;SDS011;12240;51.142;22.486;2022-12-13T02:31:41;17.52;;;7.65;;
24030;SDS011;12240;51.142;22.486;2022-12-13T02:37:46;20.10;;;8.57;;
24030;SDS011;12240;51.142;22.486;2022-12-13T02:40:37;22.05;;;9.35;;
24030;SDS011;12240;51.142;22.486;2022-12-13T02:43:19;21.17;;;8.65;;
24030;SDS011;12240;51.142;22.486;2022-12-13T02:46:00;22.10;;;9.57;;
24030;SDS011;12240;51.142;22.486;2022-12-13T02:48:31;21.05;;;8.90;;
24030;SDS011;12240;51.142;22.486;2022-12-13T02:51:04;18.20;;;8.60;;
24030;SDS011;12240;51.142;22.486;2022-12-13T02:53:35;19.02;;;8.27;;
24030;SDS011;12240;51.142;22.486;2022-12-13T02:56:06;24.05;;;9.77;;
24030;SDS011;12240;51.142;22.486;2022-12-13T02:58:35;17.00;;;8.40;;
24030;SDS011;12240;51.142;22.486;2022-12-13T03:04:10;17.73;;;8.38;;
24030;SDS011;12240;51.142;22.486;2022-12-13T03:10:32;19.58;;;8.52;;
24030;SDS011;12240;51.142;22.486;2022-12-13T03:13:12;20.13;;;7.93;;
24030;SDS011;12240;51.142;22.486;2022-12-13T03:16:23;14.82;;;7.22;;
24030;SDS011;12240;51.142;22.486;2022-12-13T03:19:09;18.63;;;8.73;;
24030;SDS011;12240;51.142;22.486;2022-12-13T03:21:39;17.95;;;8.23;;
24030;SDS011;12240;51.142;22.486;2022-12-13T03:24:18;20.88;;;9.27;;
24030;SDS011;12240;51.142;22.486;2022-12-13T03:26:48;18.30;;;8.40;;
24030;SDS011;12240;51.142;22.486;2022-12-13T03:29:17;16.75;;;6.82;;
24030;SDS011;12240;51.142;22.486;2022-12-13T03:31:51;15.77;;;7.68;;
24030;SDS011;12240;51.142;22.486;2022-12-13T03:34:20;24.25;;;8.82;;
24030;SDS011;12240;51.142;22.486;2022-12-13T03:36:50;17.33;;;6.90;;
24030;SDS011;12240;51.142;22.486;2022-12-13T03:39:19;17.17;;;7.97;;
24030;SDS011;12240;51.142;22.486;2022-12-13T03:41:48;17.45;;;7.35;;
24030;SDS011;12240;51.142;22.486;2022-12-13T03:44:16;15.57;;;8.07;;
24030;SDS011;12240;51.142;22.486;2022-12-13T03:46:44;14.98;;;7.13;;
24030;SDS011;12240;51.142;22.486;2022-12-13T03:49:13;14.90;;;7.50;;
24030;SDS011;12240;51.142;22.486;2022-12-13T03:51:44;15.07;;;6.43;;
24030;SDS011;12240;51.142;22.486;2022-12-13T03:54:11;19.50;;;6.88;;
24030;SDS011;12240;51.142;22.486;2022-12-13T03:56:40;17.33;;;7.50;;
24030;SDS011;12240;51.142;22.486;2022-12-13T03:59:08;14.48;;;6.57;;
24030;SDS011;12240;51.142;22.486;2022-12-13T04:01:36;14.55;;;7.07;;
24030;SDS011;12240;51.142;22.486;2022-12-13T04:04:04;13.45;;;6.57;;
24030;SDS011;12240;51.142;22.486;2022-12-13T04:06:35;16.50;;;7.05;;
24030;SDS011;12240;51.142;22.486;2022-12-13T04:09:03;17.42;;;7.50;;
24030;SDS011;12240;51.142;22.486;2022-12-13T04:11:31;13.40;;;6.50;;
24030;SDS011;12240;51.142;22.486;2022-12-13T04:14:18;18.95;;;6.97;;
24030;SDS011;12240;51.142;22.486;2022-12-13T04:16:49;19.65;;;8.07;;
24030;SDS011;12240;51.142;22.486;2022-12-13T04:19:19;17.50;;;7.00;;
24030;SDS011;12240;51.142;22.486;2022-12-13T04:21:50;20.10;;;7.63;;
24030;SDS011;12240;51.142;22.486;2022-12-13T04:24:21;13.43;;;6.00;;
24030;SDS011;12240;51.142;22.486;2022-12-13T04:26:58;16.13;;;7.13;;
24030;SDS011;12240;51.142;22.486;2022-12-13T04:29:28;15.35;;;6.43;;
24030;SDS011;12240;51.142;22.486;2022-12-13T04:32:02;14.43;;;5.90;;
24030;SDS011;12240;51.142;22.486;2022-12-13T04:34:30;13.63;;;5.97;;
24030;SDS011;12240;51.142;22.486;2022-12-13T04:37:04;12.93;;;6.15;;
24030;SDS011;12240;51.142;22.486;2022-12-13T04:39:32;14.68;;;6.15;;
24030;SDS011;12240;51.142;22.486;2022-12-13T04:42:00;19.63;;;6.72;;
24030;SDS011;12240;51.142;22.486;2022-12-13T04:44:31;11.50;;;5.82;;
24030;SDS011;12240;51.142;22.486;2022-12-13T04:47:03;16.55;;;5.03;;
24030;SDS011;12240;51.142;22.486;2022-12-13T04:49:31;14.75;;;5.75;;
24030;SDS011;12240;51.142;22.486;2022-12-13T04:52:00;15.93;;;5.38;;
24030;SDS011;12240;51.142;22.486;2022-12-13T04:54:29;14.50;;;5.45;;
24030;SDS011;12240;51.142;22.486;2022-12-13T04:57:04;16.25;;;6.70;;
24030;SDS011;12240;51.142;22.486;2022-12-13T04:59:35;15.05;;;5.85;;
24030;SDS011;12240;51.142;22.486;2022-12-13T05:02:04;16.98;;;7.15;;
24030;SDS011;12240;51.142;22.486;2022-12-13T05:04:34;19.45;;;6.60;;
24030;SDS011;12240;51.142;22.486;2022-12-13T05:07:02;13.52;;;5.80;;
24030;SDS011;12240;51.142;22.486;2022-12-13T05:09:31;13.13;;;5.72;;
24030;SDS011;12240;51.142;22.486;2022-12-13T05:11:58;15.68;;;6.53;;
24030;SDS011;12240;51.142;22.486;2022-12-13T05:14:31;15.05;;;6.55;;
24030;SDS011;12240;51.142;22.486;2022-12-13T05:16:59;15.95;;;6.78;;
24030;SDS011;12240;51.142;22.486;2022-12-13T05:19:28;11.88;;;5.20;;
24030;SDS011;12240;51.142;22.486;2022-12-13T05:21:58;13.80;;;5.63;;
24030;SDS011;12240;51.142;22.486;2022-12-13T05:24:29;15.85;;;6.30;;
24030;SDS011;12240;51.142;22.486;2022-12-13T05:26:58;12.82;;;5.95;;
24030;SDS011;12240;51.142;22.486;2022-12-13T05:29:26;13.05;;;6.15;;
24030;SDS011;12240;51.142;22.486;2022-12-13T05:31:55;14.75;;;6.43;;
24030;SDS011;12240;51.142;22.486;2022-12-13T05:34:23;14.73;;;5.63;;
24030;SDS011;12240;51.142;22.486;2022-12-13T05:36:51;10.52;;;5.35;;
24030;SDS011;12240;51.142;22.486;2022-12-13T05:39:20;16.40;;;6.47;;
24030;SDS011;12240;51.142;22.486;2022-12-13T05:41:56;15.07;;;5.60;;
24030;SDS011;12240;51.142;22.486;2022-12-13T05:44:29;16.63;;;6.75;;
24030;SDS011;12240;51.142;22.486;2022-12-13T05:46:58;12.60;;;6.10;;
24030;SDS011;12240;51.142;22.486;2022-12-13T05:49:29;16.27;;;6.45;;
24030;SDS011;12240;51.142;22.486;2022-12-13T05:51:58;15.98;;;6.72;;
24030;SDS011;12240;51.142;22.486;2022-12-13T05:54:26;15.85;;;6.95;;
24030;SDS011;12240;51.142;22.486;2022-12-13T05:56:54;15.70;;;6.80;;
24030;SDS011;12240;51.142;22.486;2022-12-13T05:59:22;16.33;;;6.97;;
24030;SDS011;12240;51.142;22.486;2022-12-13T06:01:51;16.65;;;6.68;;
24030;SDS011;12240;51.142;22.486;2022-12-13T06:04:19;13.93;;;6.20;;
24030;SDS011;12240;51.142;22.486;2022-12-13T06:06:49;16.38;;;6.93;;
24030;SDS011;12240;51.142;22.486;2022-12-13T06:09:19;15.27;;;7.05;;
24030;SDS011;12240;51.142;22.486;2022-12-13T06:11:48;17.00;;;6.78;;
24030;SDS011;12240;51.142;22.486;2022-12-13T06:14:16;18.15;;;7.07;;
24030;SDS011;12240;51.142;22.486;2022-12-13T06:16:49;16.52;;;7.53;;
24030;SDS011;12240;51.142;22.486;2022-12-13T06:19:19;24.00;;;8.55;;
24030;SDS011;12240;51.142;22.486;2022-12-13T06:21:49;19.55;;;7.78;;
24030;SDS011;12240;51.142;22.486;2022-12-13T06:24:20;23.33;;;7.78;;
24030;SDS011;12240;51.142;22.486;2022-12-13T06:26:49;18.70;;;8.20;;
24030;SDS011;12240;51.142;22.486;2022-12-13T06:29:19;15.85;;;7.35;;
24030;SDS011;12240;51.142;22.486;2022-12-13T06:31:52;19.13;;;8.02;;
24030;SDS011;12240;51.142;22.486;2022-12-13T06:34:29;20.25;;;8.65;;
24030;SDS011;12240;51.142;22.486;2022-12-13T06:39:33;19.60;;;8.68;;
24030;SDS011;12240;51.142;22.486;2022-12-13T06:42:02;20.88;;;8.40;;
24030;SDS011;12240;51.142;22.486;2022-12-13T06:44:34;21.45;;;8.25;;
24030;SDS011;12240;51.142;22.486;2022-12-13T06:47:03;15.90;;;7.18;;
24030;SDS011;12240;51.142;22.486;2022-12-13T06:49:39;24.33;;;8.90;;
24030;SDS011;12240;51.142;22.486;2022-12-13T06:52:11;20.77;;;9.68;;
24030;SDS011;12240;51.142;22.486;2022-12-13T06:54:41;23.38;;;9.73;;
24030;SDS011;12240;51.142;22.486;2022-12-13T06:57:10;20.70;;;9.07;;
24030;SDS011;12240;51.142;22.486;2022-12-13T06:59:39;22.92;;;9.52;;
24030;SDS011;12240;51.142;22.486;2022-12-13T07:02:08;27.08;;;10.38;;
24030;SDS011;12240;51.142;22.486;2022-12-13T07:04:51;22.02;;;9.13;;
24030;SDS011;12240;51.142;22.486;2022-12-13T07:07:21;22.45;;;9.43;;
24030;SDS011;12240;51.142;22.486;2022-12-13T07:09:51;23.88;;;9.35;;
24030;SDS011;12240;51.142;22.486;2022-12-13T07:12:20;21.02;;;8.40;;
24030;SDS011;12240;51.142;22.486;2022-12-13T07:14:48;22.05;;;9.18;;
24030;SDS011;12240;51.142;22.486;2022-12-13T07:17:16;26.80;;;9.15;;
24030;SDS011;12240;51.142;22.486;2022-12-13T07:20:04;18.27;;;7.95;;
24030;SDS011;12240;51.142;22.486;2022-12-13T07:22:35;20.15;;;7.28;;
24030;SDS011;12240;51.142;22.486;2022-12-13T07:25:13;21.50;;;8.73;;
24030;SDS011;12240;51.142;22.486;2022-12-13T07:27:59;20.58;;;8.57;;
24030;SDS011;12240;51.142;22.486;2022-12-13T07:30:36;22.25;;;10.10;;
24030;SDS011;12240;51.142;22.486;2022-12-13T07:33:07;24.58;;;9.43;;
24030;SDS011;12240;51.142;22.486;2022-12-13T07:35:35;19.33;;;8.23;;
24030;SDS011;12240;51.142;22.486;2022-12-13T07:38:08;20.75;;;9.40;;
24030;SDS011;12240;51.142;22.486;2022-12-13T07:40:38;20.17;;;8.88;;
24030;SDS011;12240;51.142;22.486;2022-12-13T07:43:08;21.88;;;8.82;;
24030;SDS011;12240;51.142;22.486;2022-12-13T07:45:36;17.58;;;8.10;;
24030;SDS011;12240;51.142;22.486;2022-12-13T07:48:04;22.38;;;9.00;;
24030;SDS011;12240;51.142;22.486;2022-12-13T07:50:34;19.85;;;8.40;;
24030;SDS011;12240;51.142;22.486;2022-12-13T07:53:04;21.80;;;8.55;;
24030;SDS011;12240;51.142;22.486;2022-12-13T07:55:35;19.38;;;7.45;;
24030;SDS011;12240;51.142;22.486;2022-12-13T07:58:08;20.15;;;8.95;;
24030;SDS011;12240;51.142;22.486;2022-12-13T08:00:40;18.50;;;9.02;;
24030;SDS011;12240;51.142;22.486;2022-12-13T08:03:13;20.33;;;8.50;;
24030;SDS011;12240;51.142;22.486;2022-12-13T08:06:02;21.58;;;8.07;;
24030;SDS011;12240;51.142;22.486;2022-12-13T08:08:33;16.45;;;7.80;;
24030;SDS011;12240;51.142;22.486;2022-12-13T08:13:31;17.63;;;8.38;;
24030;SDS011;12240;51.142;22.486;2022-12-13T08:16:01;22.15;;;9.60;;
24030;SDS011;12240;51.142;22.486;2022-12-13T08:18:52;20.40;;;8.98;;
24030;SDS011;12240;51.142;22.486;2022-12-13T08:21:36;19.77;;;8.23;;
24030;SDS011;12240;51.142;22.486;2022-12-13T08:24:27;18.13;;;7.70;;
24030;SDS011;12240;51.142;22.486;2022-12-13T08:26:57;22.48;;;9.95;;
24030;SDS011;12240;51.142;22.486;2022-12-13T08:32:08;25.40;;;11.05;;
24030;SDS011;12240;51.142;22.486;2022-12-13T08:34:38;21.58;;;9.35;;
24030;SDS011;12240;51.142;22.486;2022-12-13T08:37:07;23.73;;;10.30;;
24030;SDS011;12240;51.142;22.486;2022-12-13T08:39:36;23.10;;;9.63;;
24030;SDS011;12240;51.142;22.486;2022-12-13T08:42:06;22.27;;;10.15;;
24030;SDS011;12240;51.142;22.486;2022-12-13T08:44:47;19.65;;;9.13;;
24030;SDS011;12240;51.142;22.486;2022-12-13T08:47:18;22.17;;;9.48;;
24030;SDS011;12240;51.142;22.486;2022-12-13T08:49:56;19.20;;;8.82;;
24030;SDS011;12240;51.142;22.486;2022-12-13T08:52:29;25.52;;;10.32;;
24030;SDS011;12240;51.142;22.486;2022-12-13T08:55:08;27.23;;;11.63;;
24030;SDS011;12240;51.142;22.486;2022-12-13T08:57:39;27.92;;;11.85;;
24030;SDS011;12240;51.142;22.486;2022-12-13T09:00:12;20.05;;;8.60;;
24030;SDS011;12240;51.142;22.486;2022-12-13T09:02:43;18.58;;;9.05;;
24030;SDS011;12240;51.142;22.486;2022-12-13T09:05:11;15.38;;;7.88;;
24030;SDS011;12240;51.142;22.486;2022-12-13T09:08:00;20.83;;;9.70;;
24030;SDS011;12240;51.142;22.486;2022-12-13T09:10:57;15.98;;;8.38;;
24030;SDS011;12240;51.142;22.486;2022-12-13T09:13:30;18.95;;;8.25;;
24030;SDS011;12240;51.142;22.486;2022-12-13T09:16:13;22.55;;;9.10;;
24030;SDS011;12240;51.142;22.486;2022-12-13T09:18:52;22.02;;;9.25;;
24030;SDS011;12240;51.142;22.486;2022-12-13T09:21:22;21.80;;;9.68;;
24030;SDS011;12240;51.142;22.486;2022-12-13T09:23:58;22.38;;;9.98;;
24030;SDS011;12240;51.142;22.486;2022-12-13T09:26:28;20.85;;;8.98;;
24030;SDS011;12240;51.142;22.486;2022-12-13T09:29:04;15.70;;;7.72;;
24030;SDS011;12240;51.142;22.486;2022-12-13T09:31:37;23.42;;;8.98;;
24030;SDS011;12240;51.142;22.486;2022-12-13T09:34:07;19.05;;;8.43;;
24030;SDS011;12240;51.142;22.486;2022-12-13T09:36:36;18.67;;;9.32;;
24030;SDS011;12240;51.142;22.486;2022-12-13T09:39:04;21.48;;;9.80;;
24030;SDS011;12240;51.142;22.486;2022-12-13T09:41:38;18.88;;;9.65;;
24030;SDS011;12240;51.142;22.486;2022-12-13T09:44:28;23.60;;;9.65;;
24030;SDS011;12240;51.142;22.486;2022-12-13T09:47:15;15.93;;;7.63;;
24030;SDS011;12240;51.142;22.486;2022-12-13T09:50:05;25.00;;;9.73;;
24030;SDS011;12240;51.142;22.486;2022-12-13T09:53:05;20.63;;;9.55;;
24030;SDS011;12240;51.142;22.486;2022-12-13T09:55:48;20.58;;;8.95;;
24030;SDS011;12240;51.142;22.486;2022-12-13T09:58:28;18.90;;;9.98;;
24030;SDS011;12240;51.142;22.486;2022-12-13T10:01:01;21.42;;;9.70;;
24030;SDS011;12240;51.142;22.486;2022-12-13T10:03:32;22.92;;;9.70;;
24030;SDS011;12240;51.142;22.486;2022-12-13T10:06:14;17.27;;;7.40;;
24030;SDS011;12240;51.142;22.486;2022-12-13T10:08:56;15.88;;;8.27;;
24030;SDS011;12240;51.142;22.486;2022-12-13T10:11:26;20.23;;;8.82;;
24030;SDS011;12240;51.142;22.486;2022-12-13T10:14:08;20.50;;;9.07;;
24030;SDS011;12240;51.142;22.486;2022-12-13T10:16:51;19.02;;;8.35;;
24030;SDS011;12240;51.142;22.486;2022-12-13T10:19:40;19.92;;;8.98;;
24030;SDS011;12240;51.142;22.486;2022-12-13T10:22:12;16.27;;;7.65;;
24030;SDS011;12240;51.142;22.486;2022-12-13T10:24:47;16.65;;;7.88;;
24030;SDS011;12240;51.142;22.486;2022-12-13T10:32:41;14.48;;;7.35;;
24030;SDS011;12240;51.142;22.486;2022-12-13T10:35:27;16.52;;;7.15;;
24030;SDS011;12240;51.142;22.486;2022-12-13T10:38:19;16.80;;;7.82;;
24030;SDS011;12240;51.142;22.486;2022-12-13T10:40:58;19.65;;;7.85;;
24030;SDS011;12240;51.142;22.486;2022-12-13T10:43:27;13.82;;;6.80;;
24030;SDS011;12240;51.142;22.486;2022-12-13T10:48:47;16.40;;;7.93;;
24030;SDS011;12240;51.142;22.486;2022-12-13T10:51:18;20.35;;;7.97;;
24030;SDS011;12240;51.142;22.486;2022-12-13T10:53:53;20.40;;;9.13;;
24030;SDS011;12240;51.142;22.486;2022-12-13T10:56:32;16.58;;;7.95;;
24030;SDS011;12240;51.142;22.486;2022-12-13T10:59:35;16.05;;;8.68;;
24030;SDS011;12240;51.142;22.486;2022-12-13T11:02:26;17.55;;;7.93;;
24030;SDS011;12240;51.142;22.486;2022-12-13T11:07:54;19.02;;;8.70;;
24030;SDS011;12240;51.142;22.486;2022-12-13T11:10:37;19.85;;;8.15;;
24030;SDS011;12240;51.142;22.486;2022-12-13T11:13:06;18.50;;;8.07;;
24030;SDS011;12240;51.142;22.486;2022-12-13T11:15:52;24.10;;;8.32;;
24030;SDS011;12240;51.142;22.486;2022-12-13T11:18:23;22.17;;;9.80;;
24030;SDS011;12240;51.142;22.486;2022-12-13T11:20:57;25.15;;;10.77;;
24030;SDS011;12240;51.142;22.486;2022-12-13T11:23:33;21.17;;;9.05;;
24030;SDS011;12240;51.142;22.486;2022-12-13T11:26:10;18.88;;;8.63;;
24030;SDS011;12240;51.142;22.486;2022-12-13T11:31:46;18.23;;;8.90;;
24030;SDS011;12240;51.142;22.486;2022-12-13T11:44:55;14.52;;;7.18;;
24030;SDS011;12240;51.142;22.486;2022-12-13T11:47:53;15.90;;;7.63;;
24030;SDS011;12240;51.142;22.486;2022-12-13T11:50:27;16.73;;;7.38;;
24030;SDS011;12240;51.142;22.486;2022-12-13T12:05:03;14.32;;;6.07;;
24030;SDS011;12240;51.142;22.486;2022-12-13T12:07:45;12.55;;;5.93;;
24030;SDS011;12240;51.142;22.486;2022-12-13T12:10:41;11.82;;;4.65;;
24030;SDS011;12240;51.142;22.486;2022-12-13T12:18:43;12.10;;;5.25;;
24030;SDS011;12240;51.142;22.486;2022-12-13T12:30:07;10.68;;;4.97;;
24030;SDS011;12240;51.142;22.486;2022-12-13T12:44:29;10.68;;;5.57;;
24030;SDS011;12240;51.142;22.486;2022-12-13T12:47:23;15.82;;;6.53;;
24030;SDS011;12240;51.142;22.486;2022-12-13T12:50:27;12.10;;;5.60;;
24030;SDS011;12240;51.142;22.486;2022-12-13T13:04:53;12.50;;;5.82;;
24030;SDS011;12240;51.142;22.486;2022-12-13T13:07:39;12.52;;;5.85;;
24030;SDS011;12240;51.142;22.486;2022-12-13T13:10:17;11.95;;;5.30;;
24030;SDS011;12240;51.142;22.486;2022-12-13T13:12:53;15.43;;;6.35;;
24030;SDS011;12240;51.142;22.486;2022-12-13T13:18:41;21.13;;;6.95;;
24030;SDS011;12240;51.142;22.486;2022-12-13T13:21:24;12.98;;;5.72;;
24030;SDS011;12240;51.142;22.486;2022-12-13T13:26:28;16.55;;;6.60;;
24030;SDS011;12240;51.142;22.486;2022-12-13T13:32:01;21.00;;;7.43;;
24030;SDS011;12240;51.142;22.486;2022-12-13T13:38:00;14.98;;;6.20;;
24030;SDS011;12240;51.142;22.486;2022-12-13T13:40:34;12.45;;;5.53;;
24030;SDS011;12240;51.142;22.486;2022-12-13T13:48:35;16.23;;;6.57;;
24030;SDS011;12240;51.142;22.486;2022-12-13T14:23:18;14.43;;;4.55;;
24030;SDS011;12240;51.142;22.486;2022-12-13T14:25:56;42.17;;;20.30;;
24030;SDS011;12240;51.142;22.486;2022-12-13T14:29:23;389.98;;;118.63;;
24030;SDS011;12240;51.142;22.486;2022-12-13T14:34:29;140.63;;;66.13;;
24030;SDS011;12240;51.142;22.486;2022-12-13T14:37:17;250.18;;;107.07;;
24030;SDS011;12240;51.142;22.486;2022-12-13T14:39:48;203.38;;;124.45;;
24030;SDS011;12240;51.142;22.486;2022-12-13T14:42:20;26.52;;;13.80;;
24030;SDS011;12240;51.142;22.486;2022-12-13T14:45:11;20.73;;;10.80;;
24030;SDS011;12240;51.142;22.486;2022-12-13T14:47:49;49.95;;;34.45;;
24030;SDS011;12240;51.142;22.486;2022-12-13T14:50:19;19.13;;;12.80;;
24030;SDS011;12240;51.142;22.486;2022-12-13T14:52:50;20.17;;;12.82;;
24030;SDS011;12240;51.142;22.486;2022-12-13T14:55:24;20.08;;;10.13;;
24030;SDS011;12240;51.142;22.486;2022-12-13T14:57:55;23.48;;;13.13;;
24030;SDS011;12240;51.142;22.486;2022-12-13T15:00:27;25.00;;;8.98;;
24030;SDS011;12240;51.142;22.486;2022-12-13T15:03:02;19.77;;;7.07;;
24030;SDS011;12240;51.142;22.486;2022-12-13T15:05:32;13.77;;;5.28;;
24030;SDS011;12240;51.142;22.486;2022-12-13T15:08:17;16.55;;;6.03;;
24030;SDS011;12240;51.142;22.486;2022-12-13T15:10:56;17.90;;;6.60;;
24030;SDS011;12240;51.142;22.486;2022-12-13T15:13:40;22.55;;;7.47;;
24030;SDS011;12240;51.142;22.486;2022-12-13T15:16:26;22.30;;;7.38;;
24030;SDS011;12240;51.142;22.486;2022-12-13T15:22:05;31.73;;;9.90;;
24030;SDS011;12240;51.142;22.486;2022-12-13T15:24:44;33.20;;;11.70;;
24030;SDS011;12240;51.142;22.486;2022-12-13T15:27:21;28.42;;;11.43;;
24030;SDS011;12240;51.142;22.486;2022-12-13T15:29:50;29.75;;;11.10;;
24030;SDS011;12240;51.142;22.486;2022-12-13T15:32:20;35.67;;;14.85;;
24030;SDS011;12240;51.142;22.486;2022-12-13T15:34:49;22.40;;;8.88;;
24030;SDS011;12240;51.142;22.486;2022-12-13T15:37:22;27.92;;;11.18;;
24030;SDS011;12240;51.142;22.486;2022-12-13T15:39:58;34.67;;;17.30;;
24030;SDS011;12240;51.142;22.486;2022-12-13T15:42:34;37.92;;;15.68;;
24030;SDS011;12240;51.142;22.486;2022-12-13T15:45:05;16.55;;;7.55;;
24030;SDS011;12240;51.142;22.486;2022-12-13T15:47:50;23.92;;;11.95;;
24030;SDS011;12240;51.142;22.486;2022-12-13T15:50:36;26.30;;;10.18;;
24030;SDS011;12240;51.142;22.486;2022-12-13T15:53:18;25.73;;;8.60;;
24030;SDS011;12240;51.142;22.486;2022-12-13T15:55:58;31.05;;;11.00;;
24030;SDS011;12240;51.142;22.486;2022-12-13T15:58:35;71.72;;;21.73;;
24030;SDS011;12240;51.142;22.486;2022-12-13T16:01:03;32.22;;;10.68;;
24030;SDS011;12240;51.142;22.486;2022-12-13T16:03:39;32.75;;;14.85;;
24030;SDS011;12240;51.142;22.486;2022-12-13T16:06:16;61.35;;;32.05;;
24030;SDS011;12240;51.142;22.486;2022-12-13T16:08:48;78.07;;;36.97;;
24030;SDS011;12240;51.142;22.486;2022-12-13T16:11:24;50.90;;;25.30;;
24030;SDS011;12240;51.142;22.486;2022-12-13T16:19:54;27.47;;;8.97;;
24030;SDS011;12240;51.142;22.486;2022-12-13T16:23:06;27.08;;;9.40;;
24030;SDS011;12240;51.142;22.486;2022-12-13T16:25:35;23.77;;;8.50;;
24030;SDS011;12240;51.142;22.486;2022-12-13T16:28:04;234.83;;;82.23;;
24030;SDS011;12240;51.142;22.486;2022-12-13T16:33:19;224.32;;;156.30;;
24030;SDS011;12240;51.142;22.486;2022-12-13T16:35:54;267.30;;;186.70;;
24030;SDS011;12240;51.142;22.486;2022-12-13T16:38:23;52.80;;;27.52;;
24030;SDS011;12240;51.142;22.486;2022-12-13T16:40:53;335.33;;;223.48;;
24030;SDS011;12240;51.142;22.486;2022-12-13T16:43:36;210.07;;;138.50;;
24030;SDS011;12240;51.142;22.486;2022-12-13T16:46:11;45.08;;;22.10;;
24030;SDS011;12240;51.142;22.486;2022-12-13T16:49:01;97.88;;;54.15;;
24030;SDS011;12240;51.142;22.486;2022-12-13T16:51:43;64.37;;;37.03;;
24030;SDS011;12240;51.142;22.486;2022-12-13T16:54:15;118.07;;;72.20;;
24030;SDS011;12240;51.142;22.486;2022-12-13T16:56:45;109.90;;;61.03;;
24030;SDS011;12240;51.142;22.486;2022-12-13T16:59:16;42.75;;;21.58;;
24030;SDS011;12240;51.142;22.486;2022-12-13T17:01:46;42.13;;;17.67;;
24030;SDS011;12240;51.142;22.486;2022-12-13T17:04:17;43.35;;;15.20;;
24030;SDS011;12240;51.142;22.486;2022-12-13T17:06:50;32.75;;;14.85;;
24030;SDS011;12240;51.142;22.486;2022-12-13T17:09:21;41.17;;;15.23;;
24030;SDS011;12240;51.142;22.486;2022-12-13T17:11:51;34.00;;;14.10;;
24030;SDS011;12240;51.142;22.486;2022-12-13T17:14:19;71.25;;;28.65;;
24030;SDS011;12240;51.142;22.486;2022-12-13T17:16:47;90.15;;;41.58;;
24030;SDS011;12240;51.142;22.486;2022-12-13T17:19:15;49.33;;;20.38;;
24030;SDS011;12240;51.142;22.486;2022-12-13T17:21:44;173.48;;;81.03;;
24030;SDS011;12240;51.142;22.486;2022-12-13T17:24:12;48.47;;;21.73;;
24030;SDS011;12240;51.142;22.486;2022-12-13T17:26:41;38.90;;;14.35;;
24030;SDS011;12240;51.142;22.486;2022-12-13T17:29:22;33.55;;;13.68;;
24030;SDS011;12240;51.142;22.486;2022-12-13T17:31:51;66.18;;;33.00;;
24030;SDS011;12240;51.142;22.486;2022-12-13T17:34:19;45.65;;;22.73;;
24030;SDS011;12240;51.142;22.486;2022-12-13T17:36:47;111.47;;;68.85;;
24030;SDS011;12240;51.142;22.486;2022-12-13T17:39:15;137.88;;;85.22;;
24030;SDS011;12240;51.142;22.486;2022-12-13T17:41:44;106.85;;;56.45;;
24030;SDS011;12240;51.142;22.486;2022-12-13T17:44:24;98.20;;;53.13;;
24030;SDS011;12240;51.142;22.486;2022-12-13T17:46:53;335.45;;;179.50;;
24030;SDS011;12240;51.142;22.486;2022-12-13T17:49:22;263.13;;;128.38;;
24030;SDS011;12240;51.142;22.486;2022-12-13T17:51:51;317.23;;;182.40;;
24030;SDS011;12240;51.142;22.486;2022-12-13T17:54:20;328.58;;;176.95;;
24030;SDS011;12240;51.142;22.486;2022-12-13T17:56:51;112.97;;;59.03;;
24030;SDS011;12240;51.142;22.486;2022-12-13T17:59:20;287.50;;;130.13;;
24030;SDS011;12240;51.142;22.486;2022-12-13T18:01:50;621.05;;;357.02;;